LIZ weather

Public forecast

Using degrees Fahrenheit for public forecast. Weather courtesy of forecast.io.

Closest aviation weather report (METAR) to Loring International Airport

Closest report is Caribou Municipal Airport, 7.2 nm (13.3 km) SW. Retrieved 2020/08/10 07:54 UTC (14 minutes ago):

KCAR 100754Z AUTO 00000KT 10SM CLR 17/14 A2997 RMK AO2 SLP149 T01670144

Closest aviation forecast (TAF) to Loring International Airport

Closest forecast is Caribou Municipal Airport, 7.2 nm (13.3 km) SW. Retrieved 2020/08/10 06:22 UTC (2 hours ago):

TAF KCAR 100520Z 1006/1106 23003KT P6SM FEW070 FM102300 19003KT P6SM FEW060